Aeroboteco Virtual Airlines! Uma nuvem a frente.



 INFORMAÇÕES METEOROLÓGICAS
METAR FOR SCVM
ADDS - METARS form results

(2329 UTC 17 June 2019)
Data provider http://aviationweather.gov/metar/data/
 
METAR text: SCVM 172300Z 09003KT 9999 BKN035 09/07 Q1022
Conditions at: SCVM (VINA DEL MAR , CL) observed 2300 UTC 17 June 2019
Temperature: 9.0°C (48°F)
Dewpoint: 7.0°C (45°F) [RH = 87%]
Pressure (altimeter): 30.18 inches Hg (1022.0 mb)
Winds: from the E (90 degrees) at 3 MPH (3 knots; 1.5 m/s)
Visibility: 6 or more miles (10+ km)
Ceiling: 3500 feet AGL
Clouds: broken clouds at 3500 feet AGL
Weather: no significant weather observed at this time

 MAPA DO AEROPORTO

 INFORMAÇÕES DA PISTA
Pista 05 Tamanho da pista 5760 ft Largura da pista 98 ft
Elevação da pista 461 ft Ranhura da pista 0 ft Proa da pista 52
Pista 23 Tamanho da pista 5760 ft Largura da pista 98 ft
Elevação da pista 428 ft Ranhura da pista 0 ft Proa da pista 232

 FREQUÊNCIAS DO AEROPORTO
Tipo APP Nome SANTIAGO A Frequência 128.1 MHZ
Tipo GND Nome GND Frequência 121.85 MHZ
Tipo TWR Nome TWR Frequência 118.4 MHZ

 AUXÍLIOS DE NAVEGAÇÃO PRÓXIMOS AO AEROPORTO
Tipo NDB Nome Salinas Frequência 390 KHZ